Time;durP1;ratioP1;P1;durP2;ratioP2;P2;SDS_P1;SDS_P2;PMS_P1;PMS_P2;Temp;Humidity;BMP_temperature;BMP_pressure;BME280_temperature;BME280_humidity;BME280_pressure;Samples;Min_cycle;Max_cycle;Signal;HPM_P1;HPM_P2
2022/12/02 00:00:22;;;;;;;40.25;22.17;;;;;;;;;;5054150;28;20025;-80
2022/12/02 00:02:48;;;;;;;38.13;23.95;;;;;;;;;;5050292;28;20033;-79
2022/12/02 00:05:14;;;;;;;37.38;21.10;;;;;;;;;;5036026;28;20032;-79
2022/12/02 00:07:40;;;;;;;34.05;21.05;;;;;;;;;;5053724;28;20074;-80
2022/12/02 00:10:25;;;;;;;32.38;19.95;;;;;;;;;;5054165;28;20349;-80
2022/12/02 00:12:51;;;;;;;36.10;21.65;;;;;;;;;;5053698;28;20070;-80
2022/12/02 00:15:29;;;;;;;30.98;18.50;;;;;;;;;;5047771;28;20033;-79
2022/12/02 00:17:55;;;;;;;33.33;18.77;;;;;;;;;;5048993;28;20059;-80
2022/12/02 00:20:21;;;;;;;69.25;36.85;;;;;;;;;;5035373;28;20041;-79
2022/12/02 00:22:47;;;;;;;83.97;44.10;;;;;;;;;;5053741;28;20029;-79
2022/12/02 00:25:13;;;;;;;90.43;47.80;;;;;;;;;;5053304;28;20064;-79
2022/12/02 00:27:39;;;;;;;95.13;46.92;;;;;;;;;;5049281;28;20099;-80
2022/12/02 00:30:05;;;;;;;96.55;45.55;;;;;;;;;;5053721;28;20543;-79
2022/12/02 00:32:31;;;;;;;98.03;47.25;;;;;;;;;;5035341;28;20066;-80
2022/12/02 00:34:57;;;;;;;83.45;40.75;;;;;;;;;;5053616;28;20407;-80
2022/12/02 00:37:23;;;;;;;62.63;31.63;;;;;;;;;;5035153;28;20044;-79
2022/12/02 00:39:49;;;;;;;52.78;27.15;;;;;;;;;;5041211;28;20040;-79
2022/12/02 00:42:15;;;;;;;56.75;28.88;;;;;;;;;;5045573;28;20040;-80
2022/12/02 00:47:26;;;;;;;70.15;32.00;;;;;;;;;;5052664;28;20468;-79
2022/12/02 00:49:52;;;;;;;65.70;32.20;;;;;;;;;;5053190;28;20108;-80
2022/12/02 00:52:18;;;;;;;59.58;30.30;;;;;;;;;;5053068;28;20029;-80
2022/12/02 00:54:44;;;;;;;50.47;25.88;;;;;;;;;;5052799;28;20511;-79
2022/12/02 00:57:10;;;;;;;42.88;22.67;;;;;;;;;;5034993;28;21302;-79
2022/12/02 00:59:36;;;;;;;35.97;20.73;;;;;;;;;;5053516;28;20033;-80
2022/12/02 01:02:02;;;;;;;36.42;20.17;;;;;;;;;;5052893;28;20033;-79
2022/12/02 01:04:28;;;;;;;44.22;25.48;;;;;;;;;;5052843;28;20064;-79
2022/12/02 01:06:53;;;;;;;45.47;29.77;;;;;;;;;;5034228;28;20395;-79
2022/12/02 01:09:19;;;;;;;44.50;27.35;;;;;;;;;;5052266;28;20032;-79
2022/12/02 01:11:46;;;;;;;46.80;28.52;;;;;;;;;;5052200;28;20137;-79
2022/12/02 01:14:11;;;;;;;51.58;30.33;;;;;;;;;;5053065;28;20036;-79
2022/12/02 01:16:37;;;;;;;46.22;29.27;;;;;;;;;;5034280;28;20613;-79
2022/12/02 01:19:03;;;;;;;51.25;33.45;;;;;;;;;;5034427;28;20025;-79
2022/12/02 01:21:29;;;;;;;47.47;30.90;;;;;;;;;;5052311;28;20111;-79
2022/12/02 01:23:55;;;;;;;38.88;24.40;;;;;;;;;;5023727;28;20035;-79
2022/12/02 01:26:21;;;;;;;38.70;24.98;;;;;;;;;;5052540;28;20120;-79
2022/12/02 01:28:47;;;;;;;34.00;21.08;;;;;;;;;;5052782;28;20642;-79
2022/12/02 01:31:14;;;;;;;28.65;18.17;;;;;;;;;;5044026;28;20033;-79
2022/12/02 01:33:40;;;;;;;26.75;16.02;;;;;;;;;;5046798;28;20521;-79
2022/12/02 01:36:06;;;;;;;22.77;15.13;;;;;;;;;;5052532;28;20037;-79
2022/12/02 01:38:32;;;;;;;25.98;14.45;;;;;;;;;;5034187;28;20029;-79
2022/12/02 01:40:58;;;;;;;23.80;14.43;;;;;;;;;;5052237;28;20041;-79
2022/12/02 01:43:24;;;;;;;19.60;11.85;;;;;;;;;;5034183;28;20029;-79
2022/12/02 01:45:51;;;;;;;17.08;11.43;;;;;;;;;;5034232;28;20037;-79
2022/12/02 01:48:17;;;;;;;16.95;10.45;;;;;;;;;;5043594;28;20051;-79
2022/12/02 01:50:43;;;;;;;14.73;8.68;;;;;;;;;;5032418;28;20037;-79
2022/12/02 01:53:09;;;;;;;13.88;7.30;;;;;;;;;;5050060;28;20024;-79
2022/12/02 01:55:35;;;;;;;15.32;7.60;;;;;;;;;;5051653;28;20053;-79
2022/12/02 01:58:01;;;;;;;12.10;7.10;;;;;;;;;;5036811;28;20045;-79
2022/12/02 02:00:28;;;;;;;13.50;8.30;;;;;;;;;;5047171;28;20041;-79
2022/12/02 02:02:54;;;;;;;16.83;8.70;;;;;;;;;;5033253;28;20029;-79
2022/12/02 02:05:22;;;;;;;13.02;7.47;;;;;;;;;;5051461;28;20036;-79
2022/12/02 02:07:50;;;;;;;13.02;8.05;;;;;;;;;;5049363;28;20104;-79
2022/12/02 02:10:16;;;;;;;13.20;7.40;;;;;;;;;;5042770;28;20037;-80
2022/12/02 02:12:43;;;;;;;14.30;8.15;;;;;;;;;;5048012;28;20024;-79
2022/12/02 02:15:10;;;;;;;13.55;7.75;;;;;;;;;;5051276;28;20509;-79
2022/12/02 02:17:36;;;;;;;16.70;9.57;;;;;;;;;;5048499;28;20770;-79
2022/12/02 02:20:04;;;;;;;20.58;9.48;;;;;;;;;;5050904;28;20468;-79
2022/12/02 02:22:42;;;;;;;18.10;9.30;;;;;;;;;;5050896;28;20025;-80
2022/12/02 02:25:10;;;;;;;18.13;10.98;;;;;;;;;;5044599;28;20450;-80
2022/12/02 02:27:36;;;;;;;19.52;10.40;;;;;;;;;;5033066;28;20464;-79
2022/12/02 02:30:02;;;;;;;16.40;10.13;;;;;;;;;;5051739;28;20033;-79
2022/12/02 02:32:28;;;;;;;17.02;10.68;;;;;;;;;;5051355;28;20048;-79
2022/12/02 02:34:55;;;;;;;18.85;10.43;;;;;;;;;;5051542;28;20037;-79
2022/12/02 02:37:20;;;;;;;16.17;9.50;;;;;;;;;;5029961;28;20125;-79
2022/12/02 02:39:47;;;;;;;17.85;10.57;;;;;;;;;;5051438;28;20455;-79
2022/12/02 02:42:13;;;;;;;16.80;9.55;;;;;;;;;;5051582;28;20969;-79
2022/12/02 02:44:39;;;;;;;18.38;11.05;;;;;;;;;;5055467;28;20418;-79
2022/12/02 02:47:05;;;;;;;15.48;9.23;;;;;;;;;;5054554;28;20364;-80
2022/12/02 02:49:31;;;;;;;17.33;9.80;;;;;;;;;;5054912;28;20039;-79
2022/12/02 02:51:57;;;;;;;19.20;10.68;;;;;;;;;;5053307;28;20033;-80
2022/12/02 02:54:23;;;;;;;16.63;10.38;;;;;;;;;;5053719;28;20041;-79
2022/12/02 02:56:49;;;;;;;15.68;9.07;;;;;;;;;;5022848;28;20510;-79
2022/12/02 02:59:15;;;;;;;17.13;9.75;;;;;;;;;;5048462;28;20053;-79
2022/12/02 03:01:43;;;;;;;15.40;8.68;;;;;;;;;;5050301;28;20029;-80
2022/12/02 03:04:11;;;;;;;18.23;9.52;;;;;;;;;;5052964;28;20055;-79
2022/12/02 03:06:38;;;;;;;16.42;8.80;;;;;;;;;;5053517;28;20117;-80
2022/12/02 03:09:05;;;;;;;14.40;8.05;;;;;;;;;;5053564;28;20029;-79
2022/12/02 03:11:32;;;;;;;17.15;9.48;;;;;;;;;;5050002;28;20033;-79
2022/12/02 03:13:59;;;;;;;15.60;9.18;;;;;;;;;;5052781;28;20025;-79
2022/12/02 03:16:26;;;;;;;14.45;8.68;;;;;;;;;;5048166;28;20641;-80
2022/12/02 03:18:53;;;;;;;14.55;8.27;;;;;;;;;;5047225;28;20078;-79
2022/12/02 03:21:19;;;;;;;17.67;10.10;;;;;;;;;;5053140;28;20078;-79
2022/12/02 03:23:49;;;;;;;15.88;9.48;;;;;;;;;;5053076;28;20037;-79
2022/12/02 03:26:15;;;;;;;17.65;9.50;;;;;;;;;;5053546;28;20025;-79
2022/12/02 03:28:42;;;;;;;17.42;9.32;;;;;;;;;;5051723;28;20048;-79
2022/12/02 03:31:09;;;;;;;15.40;9.23;;;;;;;;;;5053293;28;20079;-79
2022/12/02 03:33:35;;;;;;;20.40;9.88;;;;;;;;;;5053522;28;20029;-79
2022/12/02 03:36:01;;;;;;;22.35;12.45;;;;;;;;;;5054402;28;20029;-79
2022/12/02 03:38:28;;;;;;;20.67;12.52;;;;;;;;;;5054302;28;20028;-79
2022/12/02 03:40:54;;;;;;;22.75;12.30;;;;;;;;;;5054424;28;20032;-79
2022/12/02 03:43:20;;;;;;;25.80;12.63;;;;;;;;;;5043311;28;20033;-78
2022/12/02 03:45:46;;;;;;;23.88;12.65;;;;;;;;;;5036039;28;20156;-79
2022/12/02 03:48:12;;;;;;;26.63;12.02;;;;;;;;;;5035459;28;20057;-79
2022/12/02 03:50:39;;;;;;;22.60;11.70;;;;;;;;;;5053748;28;20493;-79
2022/12/02 03:53:05;;;;;;;29.55;15.30;;;;;;;;;;5054033;28;20133;-79
2022/12/02 03:55:31;;;;;;;23.90;12.07;;;;;;;;;;5052423;28;20033;-79
2022/12/02 03:58:04;;;;;;;26.25;14.00;;;;;;;;;;5053538;28;20053;-79
2022/12/02 04:00:30;;;;;;;23.27;14.00;;;;;;;;;;5051107;28;20032;-79
2022/12/02 04:02:56;;;;;;;24.45;12.05;;;;;;;;;;5053885;28;20037;-79
2022/12/02 04:05:22;;;;;;;29.23;16.27;;;;;;;;;;5030553;28;20029;-79
2022/12/02 04:07:47;;;;;;;24.50;14.30;;;;;;;;;;5049416;28;20068;-79
2022/12/02 04:10:13;;;;;;;33.67;16.58;;;;;;;;;;5037283;28;20460;-79
2022/12/02 04:12:39;;;;;;;31.65;16.73;;;;;;;;;;5035999;28;20059;-79
2022/12/02 04:15:06;;;;;;;32.20;17.65;;;;;;;;;;5035398;28;20718;-79
2022/12/02 04:17:32;;;;;;;29.20;16.58;;;;;;;;;;5053405;28;20389;-79
2022/12/02 04:19:58;;;;;;;31.52;18.52;;;;;;;;;;5052644;28;20490;-79
2022/12/02 04:22:24;;;;;;;33.67;17.50;;;;;;;;;;5053054;28;20033;-78
2022/12/02 04:24:50;;;;;;;30.13;16.38;;;;;;;;;;5052563;28;20025;-79
2022/12/02 04:27:16;;;;;;;32.65;18.42;;;;;;;;;;5052699;28;20109;-79
2022/12/02 04:29:42;;;;;;;28.70;16.65;;;;;;;;;;5051682;28;20447;-79
2022/12/02 04:32:08;;;;;;;31.30;17.30;;;;;;;;;;5052685;28;20032;-79
2022/12/02 04:34:34;;;;;;;34.78;19.50;;;;;;;;;;5052368;28;20051;-80
2022/12/02 04:37:00;;;;;;;36.15;17.73;;;;;;;;;;5053154;28;20456;-79
2022/12/02 04:39:26;;;;;;;31.17;17.35;;;;;;;;;;5034689;28;20041;-79
2022/12/02 04:41:52;;;;;;;31.25;17.25;;;;;;;;;;5052443;28;20060;-79
2022/12/02 04:44:18;;;;;;;34.45;18.98;;;;;;;;;;5052108;28;20078;-79
2022/12/02 04:46:44;;;;;;;30.40;15.75;;;;;;;;;;5051850;28;20460;-79
2022/12/02 04:49:10;;;;;;;28.88;16.63;;;;;;;;;;5052735;28;20021;-78
2022/12/02 04:51:36;;;;;;;27.50;14.75;;;;;;;;;;5051570;28;20140;-79
2022/12/02 04:54:02;;;;;;;33.58;17.50;;;;;;;;;;5052454;28;20037;-79
2022/12/02 04:56:28;;;;;;;30.17;15.85;;;;;;;;;;5051588;28;20047;-79
2022/12/02 04:58:54;;;;;;;23.13;13.40;;;;;;;;;;5051552;28;20413;-79
2022/12/02 05:01:20;;;;;;;21.05;12.32;;;;;;;;;;5051724;28;20041;-78
2022/12/02 05:03:45;;;;;;;22.02;12.05;;;;;;;;;;5052647;28;20045;-78
2022/12/02 05:06:12;;;;;;;26.92;15.18;;;;;;;;;;5030736;28;20065;-79
2022/12/02 05:08:37;;;;;;;25.95;13.35;;;;;;;;;;5050871;28;20067;-78
2022/12/02 05:11:04;;;;;;;26.17;14.00;;;;;;;;;;5051878;28;20025;-78
2022/12/02 05:13:29;;;;;;;29.38;14.45;;;;;;;;;;5051670;28;20029;-78
2022/12/02 05:15:55;;;;;;;31.08;17.48;;;;;;;;;;5051484;28;20029;-79
2022/12/02 05:18:21;;;;;;;21.75;12.45;;;;;;;;;;5051619;28;20402;-79
2022/12/02 05:20:47;;;;;;;19.17;10.88;;;;;;;;;;5052121;28;20033;-79
2022/12/02 05:23:13;;;;;;;30.80;15.55;;;;;;;;;;5050184;28;20025;-79
2022/12/02 05:25:39;;;;;;;53.42;26.35;;;;;;;;;;5032033;28;20518;-79
2022/12/02 05:28:05;;;;;;;53.00;25.70;;;;;;;;;;5046308;28;20029;-79
2022/12/02 05:30:31;;;;;;;38.70;20.48;;;;;;;;;;5051980;28;20483;-79
2022/12/02 05:32:57;;;;;;;34.33;16.95;;;;;;;;;;5051650;28;20017;-79
2022/12/02 05:35:23;;;;;;;34.00;18.17;;;;;;;;;;5033481;28;20033;-79
2022/12/02 05:37:49;;;;;;;29.55;16.90;;;;;;;;;;5049481;28;20538;-79
2022/12/02 05:40:15;;;;;;;33.92;18.92;;;;;;;;;;5051422;28;20035;-79
2022/12/02 05:42:42;;;;;;;49.92;31.30;;;;;;;;;;5032607;28;20112;-79
2022/12/02 05:45:19;;;;;;;43.60;26.98;;;;;;;;;;5050989;28;20576;-79
2022/12/02 05:47:47;;;;;;;32.80;20.15;;;;;;;;;;5044878;28;20021;-79
2022/12/02 05:50:14;;;;;;;31.70;19.50;;;;;;;;;;5051137;28;20028;-79
2022/12/02 05:52:40;;;;;;;30.73;16.38;;;;;;;;;;5032540;28;20382;-78
2022/12/02 05:55:16;;;;;;;47.28;22.15;;;;;;;;;;5033313;28;20044;-79
2022/12/02 05:57:42;;;;;;;40.38;22.20;;;;;;;;;;5049268;28;20056;-79
2022/12/02 06:00:08;;;;;;;38.85;22.73;;;;;;;;;;5050816;28;20042;-79
2022/12/02 06:02:48;;;;;;;42.33;22.83;;;;;;;;;;5050653;28;20040;-79
2022/12/02 06:05:17;;;;;;;40.63;20.08;;;;;;;;;;5050649;28;20175;-79
2022/12/02 06:07:44;;;;;;;36.17;18.95;;;;;;;;;;5031744;28;20657;-79
2022/12/02 06:10:30;;;;;;;40.20;19.42;;;;;;;;;;5037010;28;20036;-79
2022/12/02 06:13:01;;;;;;;38.40;18.92;;;;;;;;;;5050948;28;20112;-79
2022/12/02 06:15:32;;;;;;;42.22;20.42;;;;;;;;;;5041542;28;20033;-79
2022/12/02 06:17:58;;;;;;;42.97;21.77;;;;;;;;;;5050199;28;20037;-79
2022/12/02 06:20:29;;;;;;;44.25;20.08;;;;;;;;;;5050531;28;20044;-79
2022/12/02 06:22:56;;;;;;;32.30;18.10;;;;;;;;;;5051236;28;20086;-79
2022/12/02 06:25:23;;;;;;;26.15;14.40;;;;;;;;;;5048633;28;20037;-79
2022/12/02 06:27:49;;;;;;;26.52;13.23;;;;;;;;;;5049626;28;20025;-79
2022/12/02 06:30:15;;;;;;;26.35;12.35;;;;;;;;;;5050783;28;20064;-77
2022/12/02 06:32:45;;;;;;;28.33;12.43;;;;;;;;;;5045962;28;20021;-78
2022/12/02 06:35:19;;;;;;;23.83;12.80;;;;;;;;;;5046375;28;20049;-77
2022/12/02 06:37:45;;;;;;;25.48;14.38;;;;;;;;;;5047874;28;20893;-78
2022/12/02 06:40:21;;;;;;;34.50;18.73;;;;;;;;;;5041023;28;20037;-79
2022/12/02 06:42:47;;;;;;;36.67;18.80;;;;;;;;;;5042421;28;20136;-79
2022/12/02 06:45:13;;;;;;;34.83;17.38;;;;;;;;;;5054277;28;20048;-79
2022/12/02 06:47:43;;;;;;;37.83;19.08;;;;;;;;;;5048482;28;20676;-79
2022/12/02 06:50:22;;;;;;;32.60;17.73;;;;;;;;;;5050260;28;20028;-79
2022/12/02 06:52:48;;;;;;;37.05;20.52;;;;;;;;;;5047738;28;20025;-79
2022/12/02 06:55:27;;;;;;;42.50;22.20;;;;;;;;;;5029728;28;20046;-79
2022/12/02 06:57:53;;;;;;;40.03;21.15;;;;;;;;;;5046161;28;20040;-79
2022/12/02 07:00:19;;;;;;;34.40;20.02;;;;;;;;;;5051090;28;20520;-79
2022/12/02 07:02:45;;;;;;;30.90;17.98;;;;;;;;;;5051124;28;20104;-79
2022/12/02 07:05:18;;;;;;;28.63;15.63;;;;;;;;;;5042151;28;20113;-79
2022/12/02 07:07:44;;;;;;;31.33;18.17;;;;;;;;;;5050000;28;20036;-79
2022/12/02 07:10:16;;;;;;;31.88;17.20;;;;;;;;;;5050604;28;20082;-78
2022/12/02 07:12:44;;;;;;;29.02;16.77;;;;;;;;;;5027969;28;20078;-79
2022/12/02 07:15:10;;;;;;;40.70;20.35;;;;;;;;;;5047979;28;20773;-79
2022/12/02 07:17:37;;;;;;;40.58;21.98;;;;;;;;;;5048854;28;20043;-79
2022/12/02 07:20:08;;;;;;;44.17;23.65;;;;;;;;;;5045392;28;20042;-79
2022/12/02 07:22:42;;;;;;;51.38;27.83;;;;;;;;;;5028527;28;20799;-79
2022/12/02 07:25:21;;;;;;;58.13;28.63;;;;;;;;;;5049627;28;20566;-79
2022/12/02 07:27:48;;;;;;;59.17;28.52;;;;;;;;;;5043776;28;20040;-79
2022/12/02 07:30:17;;;;;;;55.40;27.20;;;;;;;;;;5051117;28;20395;-79
2022/12/02 07:32:43;;;;;;;43.22;23.45;;;;;;;;;;5052753;28;20028;-79
2022/12/02 07:35:09;;;;;;;56.38;24.38;;;;;;;;;;5034839;28;20612;-79
2022/12/02 07:37:35;;;;;;;43.97;23.15;;;;;;;;;;5044923;28;20029;-79
2022/12/02 07:40:02;;;;;;;43.17;20.17;;;;;;;;;;5053126;28;20407;-79
2022/12/02 07:42:28;;;;;;;37.03;19.25;;;;;;;;;;5044246;28;20053;-79
2022/12/02 07:44:54;;;;;;;32.80;16.55;;;;;;;;;;5051411;28;20072;-79
2022/12/02 07:47:20;;;;;;;26.52;15.20;;;;;;;;;;5044703;28;20509;-79
2022/12/02 07:49:46;;;;;;;29.92;15.02;;;;;;;;;;5034440;28;20163;-79
2022/12/02 07:52:12;;;;;;;28.75;13.60;;;;;;;;;;5051422;28;20056;-79
2022/12/02 07:54:38;;;;;;;27.10;16.10;;;;;;;;;;5048186;28;20037;-79
2022/12/02 07:57:04;;;;;;;27.65;16.10;;;;;;;;;;5042359;28;20548;-79
2022/12/02 07:59:30;;;;;;;27.65;16.85;;;;;;;;;;5030709;28;20049;-79
2022/12/02 08:01:56;;;;;;;29.27;15.32;;;;;;;;;;5051347;28;20522;-79
2022/12/02 08:04:22;;;;;;;27.77;16.20;;;;;;;;;;5045648;28;20211;-79
2022/12/02 08:06:48;;;;;;;31.70;15.52;;;;;;;;;;5047636;28;21276;-79
2022/12/02 08:09:14;;;;;;;27.27;13.27;;;;;;;;;;5032686;28;20040;-79
2022/12/02 08:11:40;;;;;;;26.75;14.48;;;;;;;;;;5045757;28;20100;-78
2022/12/02 08:14:06;;;;;;;22.60;13.77;;;;;;;;;;5052585;28;20158;-79
2022/12/02 08:16:32;;;;;;;23.77;13.18;;;;;;;;;;5049246;28;20039;-79
2022/12/02 08:19:00;;;;;;;47.90;24.88;;;;;;;;;;5052185;28;20039;-79
2022/12/02 08:21:26;;;;;;;50.42;27.85;;;;;;;;;;5051297;28;20029;-79
2022/12/02 08:23:52;;;;;;;36.80;18.63;;;;;;;;;;5050678;28;20048;-79
2022/12/02 08:26:18;;;;;;;36.65;19.83;;;;;;;;;;5052585;28;20013;-79
2022/12/02 08:28:44;;;;;;;29.92;15.93;;;;;;;;;;5051807;28;20062;-79
2022/12/02 08:31:10;;;;;;;30.27;16.83;;;;;;;;;;5049199;28;20702;-79
2022/12/02 08:33:36;;;;;;;29.50;15.95;;;;;;;;;;5046569;28;20100;-79
2022/12/02 08:36:03;;;;;;;31.92;18.48;;;;;;;;;;5051709;28;20029;-79
2022/12/02 08:38:29;;;;;;;38.17;16.48;;;;;;;;;;5052162;28;20075;-79
2022/12/02 08:40:55;;;;;;;30.33;15.68;;;;;;;;;;5050109;28;20037;-79
2022/12/02 08:43:21;;;;;;;30.08;16.80;;;;;;;;;;5051220;28;20044;-79
2022/12/02 08:45:47;;;;;;;31.35;16.45;;;;;;;;;;5045609;28;20369;-79
2022/12/02 08:48:13;;;;;;;32.05;16.40;;;;;;;;;;5050394;28;20071;-79
2022/12/02 08:50:39;;;;;;;36.00;18.17;;;;;;;;;;5049850;28;20029;-79
2022/12/02 08:53:05;;;;;;;29.80;16.48;;;;;;;;;;5049149;28;20033;-79
2022/12/02 08:55:31;;;;;;;27.70;15.82;;;;;;;;;;5050774;28;20033;-79
2022/12/02 08:57:57;;;;;;;30.08;15.43;;;;;;;;;;5050401;28;20072;-79
2022/12/02 09:00:23;;;;;;;31.92;15.25;;;;;;;;;;5050096;28;20036;-79
2022/12/02 09:02:50;;;;;;;31.98;16.00;;;;;;;;;;5050937;28;20109;-79
2022/12/02 09:05:16;;;;;;;23.80;13.43;;;;;;;;;;5046912;28;20132;-79
2022/12/02 09:07:42;;;;;;;18.15;8.88;;;;;;;;;;5050791;28;20734;-80
2022/12/02 09:10:09;;;;;;;13.90;8.02;;;;;;;;;;5045578;28;20029;-79
2022/12/02 09:12:35;;;;;;;13.93;8.27;;;;;;;;;;5028965;28;20033;-79
2022/12/02 09:15:01;;;;;;;21.02;9.70;;;;;;;;;;5046251;28;20036;-79
2022/12/02 09:17:27;;;;;;;19.42;11.50;;;;;;;;;;5048378;28;20044;-78
2022/12/02 09:19:53;;;;;;;30.67;16.17;;;;;;;;;;5050809;28;20033;-79
2022/12/02 09:22:19;;;;;;;113.85;56.75;;;;;;;;;;5049849;28;20087;-79
2022/12/02 09:24:45;;;;;;;40.42;20.48;;;;;;;;;;5050947;28;20411;-79
2022/12/02 09:27:11;;;;;;;32.60;17.33;;;;;;;;;;5049907;28;20029;-79
2022/12/02 09:29:37;;;;;;;37.47;19.00;;;;;;;;;;5044739;28;20476;-79
2022/12/02 09:32:03;;;;;;;29.42;16.48;;;;;;;;;;5042991;28;20456;-79
2022/12/02 09:34:29;;;;;;;23.67;13.18;;;;;;;;;;5030844;28;20086;-79
2022/12/02 09:36:55;;;;;;;14.18;8.45;;;;;;;;;;5024423;28;20440;-80
2022/12/02 09:39:21;;;;;;;13.57;7.15;;;;;;;;;;5045335;28;20156;-79
2022/12/02 09:41:47;;;;;;;16.27;7.57;;;;;;;;;;5049517;28;20111;-79
2022/12/02 09:44:13;;;;;;;15.05;8.40;;;;;;;;;;5049139;28;20124;-80
2022/12/02 09:46:39;;;;;;;25.10;14.07;;;;;;;;;;5047363;28;20155;-79
2022/12/02 09:49:06;;;;;;;18.00;7.90;;;;;;;;;;5051357;28;20070;-79
2022/12/02 09:51:32;;;;;;;10.88;6.30;;;;;;;;;;5050001;28;20091;-78
2022/12/02 09:53:58;;;;;;;10.13;5.85;;;;;;;;;;5050498;28;20163;-79
2022/12/02 09:56:24;;;;;;;23.42;7.68;;;;;;;;;;5050715;28;20056;-80
2022/12/02 09:58:52;;;;;;;18.17;9.43;;;;;;;;;;5050342;28;20400;-79
2022/12/02 10:01:18;;;;;;;22.05;10.40;;;;;;;;;;5050688;28;20250;-79
2022/12/02 10:03:45;;;;;;;25.55;11.63;;;;;;;;;;5050107;28;20024;-80
2022/12/02 10:06:22;;;;;;;22.83;11.52;;;;;;;;;;5043744;28;20025;-79
2022/12/02 10:08:48;;;;;;;20.15;9.90;;;;;;;;;;5048089;28;20068;-79
2022/12/02 10:11:19;;;;;;;31.02;15.23;;;;;;;;;;5042189;28;20037;-79
2022/12/02 10:13:45;;;;;;;29.77;14.93;;;;;;;;;;5049940;28;20036;-79
2022/12/02 10:16:12;;;;;;;25.00;13.73;;;;;;;;;;5028010;28;20029;-79
2022/12/02 10:18:38;;;;;;;24.77;13.60;;;;;;;;;;5047590;28;20029;-79
2022/12/02 10:21:04;;;;;;;21.83;12.38;;;;;;;;;;5049351;28;20040;-79
2022/12/02 10:23:31;;;;;;;23.92;11.93;;;;;;;;;;5045787;28;20025;-79
2022/12/02 10:26:06;;;;;;;19.67;11.93;;;;;;;;;;5046369;28;20468;-79
2022/12/02 10:28:34;;;;;;;20.35;10.27;;;;;;;;;;5047071;28;20624;-80
2022/12/02 10:31:03;;;;;;;18.27;9.00;;;;;;;;;;5029206;28;20029;-79
2022/12/02 10:33:31;;;;;;;15.80;9.32;;;;;;;;;;5032189;28;20029;-79
2022/12/02 10:35:58;;;;;;;26.48;12.40;;;;;;;;;;5050340;28;20040;-80
2022/12/02 10:38:35;;;;;;;47.53;20.83;;;;;;;;;;5050504;28;20038;-80
2022/12/02 10:41:10;;;;;;;21.83;10.63;;;;;;;;;;5050881;28;20047;-79
2022/12/02 10:43:36;;;;;;;19.98;9.32;;;;;;;;;;5049281;28;20466;-79
2022/12/02 10:46:02;;;;;;;16.10;8.30;;;;;;;;;;5050751;28;20040;-79
2022/12/02 10:48:28;;;;;;;16.20;7.93;;;;;;;;;;5050207;28;20053;-80
2022/12/02 10:50:54;;;;;;;19.75;11.20;;;;;;;;;;5048155;28;20033;-79
2022/12/02 10:53:24;;;;;;;20.88;10.27;;;;;;;;;;5050034;28;20471;-79
2022/12/02 10:55:50;;;;;;;18.13;8.63;;;;;;;;;;5033042;28;20033;-80
2022/12/02 10:58:22;;;;;;;14.52;7.47;;;;;;;;;;5046875;28;20079;-80
2022/12/02 11:00:48;;;;;;;14.90;8.30;;;;;;;;;;5033269;28;20039;-79
2022/12/02 11:03:14;;;;;;;16.63;9.57;;;;;;;;;;5051992;28;20048;-79
2022/12/02 11:05:40;;;;;;;18.88;10.05;;;;;;;;;;5050450;28;20041;-79
2022/12/02 11:08:06;;;;;;;18.02;9.73;;;;;;;;;;5055481;28;20040;-79
2022/12/02 11:10:34;;;;;;;16.70;7.78;;;;;;;;;;5055161;28;20033;-80
2022/12/02 11:13:03;;;;;;;11.98;6.53;;;;;;;;;;5055234;28;20507;-80
2022/12/02 11:15:43;;;;;;;15.18;7.00;;;;;;;;;;5054930;28;20037;-79
2022/12/02 11:18:24;;;;;;;12.80;7.10;;;;;;;;;;5045901;28;20460;-79
2022/12/02 11:21:13;;;;;;;12.35;6.18;;;;;;;;;;5049647;28;20459;-79
2022/12/02 11:23:39;;;;;;;15.32;7.68;;;;;;;;;;5041150;28;20115;-79
2022/12/02 11:26:12;;;;;;;17.38;7.60;;;;;;;;;;5036506;28;20029;-80
2022/12/02 11:28:46;;;;;;;14.75;7.55;;;;;;;;;;5044030;28;20056;-79
2022/12/02 11:31:17;;;;;;;13.40;6.57;;;;;;;;;;5049708;28;20028;-80
2022/12/02 11:33:43;;;;;;;15.45;7.22;;;;;;;;;;5026304;28;20060;-80
2022/12/02 11:36:09;;;;;;;15.90;7.35;;;;;;;;;;5051241;28;20468;-80
2022/12/02 11:38:50;;;;;;;12.98;7.32;;;;;;;;;;5037371;28;20028;-80
2022/12/02 11:41:17;;;;;;;12.60;7.32;;;;;;;;;;5052688;28;20112;-80
2022/12/02 11:43:46;;;;;;;19.55;6.55;;;;;;;;;;5036708;28;20104;-80
2022/12/02 11:46:20;;;;;;;14.85;6.68;;;;;;;;;;5032273;28;20090;-80
2022/12/02 11:48:49;;;;;;;16.23;8.07;;;;;;;;;;5043287;28;20025;-80
2022/12/02 11:51:34;;;;;;;12.57;6.63;;;;;;;;;;5054396;28;20025;-79
2022/12/02 11:54:00;;;;;;;13.43;7.07;;;;;;;;;;5028687;28;20034;-80
2022/12/02 11:56:32;;;;;;;13.10;6.50;;;;;;;;;;5033926;28;20043;-79
2022/12/02 11:58:58;;;;;;;;;;;;;;;;;;5053295;28;20049;-79
2022/12/02 12:01:24;;;;;;;14.30;6.88;;;;;;;;;;5054513;28;19909;-79
2022/12/02 12:03:51;;;;;;;11.63;6.15;;;;;;;;;;5050744;28;20034;-79
2022/12/02 12:06:18;;;;;;;13.50;5.85;;;;;;;;;;5044607;28;20033;-80
2022/12/02 12:08:49;;;;;;;12.32;6.50;;;;;;;;;;5051835;28;20029;-79
2022/12/02 12:11:24;;;;;;;12.07;6.43;;;;;;;;;;5042205;28;20052;-79
2022/12/02 12:14:03;;;;;;;15.13;7.07;;;;;;;;;;5051322;28;20482;-79
2022/12/02 12:16:31;;;;;;;14.02;7.20;;;;;;;;;;5052694;28;20036;-79
2022/12/02 12:18:58;;;;;;;18.10;7.82;;;;;;;;;;5041276;28;20022;-80
2022/12/02 12:21:30;;;;;;;10.57;6.20;;;;;;;;;;5053296;28;20032;-79
2022/12/02 12:24:18;;;;;;;11.05;6.53;;;;;;;;;;5049833;28;20033;-80
2022/12/02 12:27:05;;;;;;;15.43;7.05;;;;;;;;;;5046770;28;20406;-80
2022/12/02 12:29:32;;;;;;;16.42;7.65;;;;;;;;;;5003706;28;20119;-79
2022/12/02 12:31:58;;;;;;;14.68;7.20;;;;;;;;;;5052851;28;20021;-80
2022/12/02 12:34:24;;;;;;;14.88;7.13;;;;;;;;;;5052198;28;20075;-79
2022/12/02 12:36:50;;;;;;;18.00;8.65;;;;;;;;;;5053182;28;20403;-80
2022/12/02 12:39:16;;;;;;;25.60;14.30;;;;;;;;;;5053504;28;20488;-80
2022/12/02 12:41:43;;;;;;;40.20;23.35;;;;;;;;;;5028734;28;20383;-79
2022/12/02 12:44:09;;;;;;;19.67;11.75;;;;;;;;;;5053643;28;20033;-79
2022/12/02 12:46:35;;;;;;;18.48;8.52;;;;;;;;;;5034995;28;20033;-80
2022/12/02 12:49:01;;;;;;;16.23;9.25;;;;;;;;;;5053326;28;20036;-79
2022/12/02 12:51:27;;;;;;;16.23;8.23;;;;;;;;;;5053112;28;20506;-79
2022/12/02 12:53:53;;;;;;;19.95;10.85;;;;;;;;;;5053331;28;20344;-80
2022/12/02 12:56:19;;;;;;;14.70;9.23;;;;;;;;;;5024725;28;20033;-79
2022/12/02 12:58:45;;;;;;;22.13;12.82;;;;;;;;;;5035821;28;20525;-80
2022/12/02 13:01:11;;;;;;;13.23;7.88;;;;;;;;;;5047843;28;20068;-80
2022/12/02 13:03:37;;;;;;;12.88;7.75;;;;;;;;;;5035245;28;20055;-80
2022/12/02 13:06:03;;;;;;;14.05;7.68;;;;;;;;;;5053171;28;20519;-80
2022/12/02 13:08:29;;;;;;;11.40;7.13;;;;;;;;;;5053559;28;20021;-80
2022/12/02 13:10:55;;;;;;;15.77;8.23;;;;;;;;;;5052980;28;20079;-80
2022/12/02 13:13:22;;;;;;;16.63;8.23;;;;;;;;;;5053414;28;20075;-80
2022/12/02 13:15:48;;;;;;;14.43;7.55;;;;;;;;;;5034650;28;20056;-80
2022/12/02 13:18:14;;;;;;;12.25;7.15;;;;;;;;;;5053068;28;20485;-79
2022/12/02 13:20:40;;;;;;;18.05;7.28;;;;;;;;;;5052146;28;20041;-79
2022/12/02 13:23:06;;;;;;;19.20;8.85;;;;;;;;;;5035049;28;20025;-79
2022/12/02 13:25:32;;;;;;;16.52;8.82;;;;;;;;;;5052620;28;20039;-79
2022/12/02 13:27:58;;;;;;;24.05;8.77;;;;;;;;;;5034577;28;20052;-80
2022/12/02 13:30:24;;;;;;;17.40;9.40;;;;;;;;;;5045432;28;20068;-80
2022/12/02 13:32:50;;;;;;;18.27;9.93;;;;;;;;;;5052569;28;20032;-79
2022/12/02 13:35:16;;;;;;;17.13;10.48;;;;;;;;;;5052416;28;20040;-79
2022/12/02 13:37:43;;;;;;;19.80;10.63;;;;;;;;;;5052545;28;20052;-80
2022/12/02 13:40:11;;;;;;;19.67;9.85;;;;;;;;;;5034789;28;20489;-80
2022/12/02 13:42:37;;;;;;;17.25;10.05;;;;;;;;;;5052119;28;20028;-79
2022/12/02 13:45:04;;;;;;;17.98;10.30;;;;;;;;;;5052575;28;20071;-79
2022/12/02 13:47:30;;;;;;;19.52;10.00;;;;;;;;;;5038546;28;20049;-79
2022/12/02 13:49:56;;;;;;;19.30;10.10;;;;;;;;;;5052547;28;20103;-79
2022/12/02 13:52:22;;;;;;;22.60;10.38;;;;;;;;;;5034334;28;20080;-79
2022/12/02 13:54:48;;;;;;;15.27;9.25;;;;;;;;;;5051963;28;20507;-79
2022/12/02 13:57:14;;;;;;;17.90;9.05;;;;;;;;;;5052066;28;20040;-80
2022/12/02 13:59:40;;;;;;;20.17;11.52;;;;;;;;;;5052477;28;20112;-79
2022/12/02 14:02:06;;;;;;;18.83;10.20;;;;;;;;;;5052140;28;20771;-79
2022/12/02 14:04:32;;;;;;;17.90;11.02;;;;;;;;;;5052035;28;20043;-79
2022/12/02 14:07:00;;;;;;;20.90;12.32;;;;;;;;;;5050465;28;20075;-79
2022/12/02 14:09:26;;;;;;;18.90;12.15;;;;;;;;;;5045367;28;20045;-80
2022/12/02 14:11:52;;;;;;;23.17;12.85;;;;;;;;;;5049772;28;20028;-79
2022/12/02 14:14:18;;;;;;;29.02;14.70;;;;;;;;;;5051967;28;20491;-79
2022/12/02 14:16:47;;;;;;;22.50;12.40;;;;;;;;;;5051802;28;20036;-79
2022/12/02 14:19:13;;;;;;;20.13;12.00;;;;;;;;;;5051581;28;20039;-80
2022/12/02 14:21:39;;;;;;;21.50;12.68;;;;;;;;;;5029134;28;20036;-79
2022/12/02 14:24:05;;;;;;;21.05;13.02;;;;;;;;;;5052459;28;20460;-79